Data for 12/04/2016

Time Sea-Level Adjusted Pressure Absolute Pressure Temperature Relative Humidity Dew Point   
(mb) (inHg) (mb) (inHg) (C) (F) (%) (C) (F)
00:05 1016 30 845 24.95 -0.4 31.3 46 -10.8 12.6
00:10 1016 30 845 24.95 -0.1 31.8 45 -10.7 12.8
00:15 1016 30 846 24.98 -0.1 31.8 45 -10.6 13
00:20 1016 30 846 24.98 -0.1 31.8 47 -10.2 13.6
00:25 1016 30 846 24.98 -0.3 31.5 49 -9.9 14.2
00:30 1016 30 846 24.98 -0.4 31.2 49 -9.9 14.1
00:35 1016 30 846 24.98 -0.4 31.3 49 -9.9 14.1
00:40 1016 30 846 24.98 -0.4 31.3 49 -9.9 14.2
00:45 1016 30 846 24.98 -0.5 31.2 49 -9.8 14.3
00:50 1016 30 845 24.95 -0.5 31.1 49 -10.1 13.8
00:55 1016 30 845 24.95 -0.4 31.2 49 -10 14
01:00 1016 30 845 24.95 -0.4 31.2 49 -10 14
01:05 1016 30 845 24.95 -0.4 31.3 48 -10.1 13.8
01:10 1016 30 845 24.95 -0.4 31.4 49 -9.8 14.3
01:15 1016 30 845 24.95 -0.5 31.2 49 -9.9 14.1
01:20 1016 30 845 24.95 -0.4 31.3 48 -10.2 13.6
01:25 1016 30 845 24.95 -0.2 31.6 47 -10.2 13.7
01:30 1016 30 845 24.95 -0.2 31.6 48 -10.1 13.9
01:35 1016 30 845 24.95 -0.3 31.4 48 -10.1 13.8
01:40 1016 30 845 24.95 -0.3 31.4 47 -10.4 13.4
01:45 1016 30 845 24.95 -0.2 31.6 47 -10.2 13.7
01:50 1016 30 845 24.95 -0.3 31.4 47 -10.2 13.7
01:55 1016 30 845 24.95 -0.4 31.3 48 -10.1 13.7
02:00 1016 30 845 24.95 -0.4 31.3 48 -10.2 13.7
02:05 1016 30 845 24.95 -0.5 31.1 49 -9.9 14.1
02:10 1015 29.97 845 24.95 -0.6 30.9 49 -10.1 13.9
02:15 1015 29.97 845 24.95 -0.5 31.1 48 -10.2 13.6
02:20 1015 29.97 845 24.95 -0.5 31.1 48 -10.3 13.5
02:25 1015 29.97 845 24.95 -0.5 31.1 48 -10.1 13.7
02:30 1015 29.97 845 24.95 -0.6 31 49 -10.1 13.9
02:35 1015 29.97 845 24.95 -0.6 30.8 48 -10.3 13.4
02:40 1015 29.97 845 24.95 -0.6 31 46 -10.8 12.6
02:45 1015 29.97 844 24.92 -0.5 31.1 47 -10.4 13.3
02:50 1015 29.97 844 24.92 -0.5 31 47 -10.7 12.8
02:55 1015 29.97 844 24.92 -0.5 31.1 45 -11 12.2
03:00 1015 29.97 844 24.92 -0.5 31.1 47 -10.6 12.9
03:05 1015 29.97 844 24.92 -0.6 30.9 47 -10.5 13.1
03:10 1015 29.97 844 24.92 -0.7 30.7 47 -10.6 12.9
03:15 1015 29.97 844 24.92 -0.7 30.7 47 -10.8 12.6
03:20 1015 29.97 844 24.92 -0.8 30.6 46 -11 12.3
03:25 1015 29.97 844 24.92 -0.7 30.7 46 -11.1 12.1
03:30 1015 29.97 844 24.92 -0.6 30.9 46 -10.8 12.6
03:35 1015 29.97 844 24.92 -0.6 30.9 46 -10.8 12.5
03:40 1015 29.97 844 24.92 -0.6 30.8 47 -10.7 12.7
03:45 1014 29.94 843 24.89 -0.8 30.6 49 -10.3 13.4
03:50 1014 29.94 843 24.89 -1 30.2 48 -10.6 12.9
03:55 1014 29.94 843 24.89 -1.1 30.1 49 -10.5 13.1
04:00 1014 29.94 843 24.89 -1.1 30 49 -10.6 13
04:05 1014 29.94 843 24.89 -1.2 29.8 50 -10.3 13.4
04:10 1014 29.94 843 24.89 -1.4 29.5 51 -10.2 13.7
04:15 1014 29.94 843 24.89 -1.6 29.1 52 -10.2 13.6
04:20 1014 29.94 843 24.89 -1.8 28.7 52 -10.4 13.2
04:25 1014 29.94 843 24.89 -1.8 28.8 52 -10.3 13.4
04:30 1014 29.94 843 24.89 -1.7 29 50 -10.8 12.6
04:35 1014 29.94 843 24.89 -1.1 30.1 45 -11.5 11.3
04:40 1014 29.94 843 24.89 -0.6 30.9 47 -10.6 12.9
04:45 1014 29.94 843 24.89 -0.9 30.4 51 -9.8 14.3
04:50 1014 29.94 843 24.89 -1.4 29.5 52 -10.1 13.8
04:55 1014 29.94 843 24.89 -1.4 29.4 52 -9.9 14.1
05:00 1014 29.94 843 24.89 -1.4 29.5 51 -10.4 13.4
05:05 1014 29.94 843 24.89 -1.1 30 49 -10.6 13
05:10 1013 29.91 843 24.89 -1 30.2 51 -10 14
05:15 1013 29.91 843 24.89 -1.1 30 52 -9.9 14.3
05:20 1013 29.91 843 24.89 -1.3 29.6 52 -9.9 14.2
05:25 1013 29.91 842 24.86 -1.5 29.3 53 -10 14
05:30 1013 29.91 842 24.86 -1.6 29 53 -10 14
05:35 1013 29.91 842 24.86 -1.7 29 52 -10.3 13.4
05:40 1013 29.91 842 24.86 -1.6 29.2 51 -10.4 13.3
05:45 1013 29.91 842 24.86 -1.6 29.2 52 -10.3 13.5
05:50 1013 29.91 842 24.86 -1.7 29 53 -10 13.9
05:55 1013 29.91 842 24.86 -1.8 28.8 53 -10.2 13.6
06:00 1013 29.91 842 24.86 -1.7 28.9 52 -10.4 13.3
06:05 1013 29.91 842 24.86 -1.5 29.2 49 -11 12.3
06:10 1013 29.91 842 24.86 -1.1 30 48 -10.8 12.6
06:15 1012 29.88 842 24.86 -0.9 30.3 47 -11 12.3
06:20 1012 29.88 842 24.86 -0.9 30.3 47 -10.8 12.5
06:25 1012 29.88 842 24.86 -1 30.2 48 -10.7 12.8
06:30 1012 29.88 842 24.86 -1.1 30 49 -10.6 12.9
06:35 1012 29.88 842 24.86 -1.1 30 47 -11 12.2
06:40 1012 29.88 842 24.86 -0.8 30.6 46 -10.9 12.4
06:45 1012 29.88 841 24.83 -0.6 31 47 -10.5 13
06:50 1012 29.88 841 24.83 -0.6 30.9 46 -10.9 12.5
06:55 1012 29.88 841 24.83 -0.6 31 47 -10.6 13
07:00 1012 29.88 841 24.83 -0.4 31.3 47 -10.4 13.3
07:05 1012 29.88 841 24.83 -0.8 30.6 50 -9.9 14.2
07:10 1012 29.88 841 24.83 -1.4 29.5 51 -10.4 13.3
07:15 1012 29.88 841 24.83 -1.5 29.3 52 -10.1 13.8
07:20 1012 29.88 841 24.83 -1.6 29.1 52 -10.1 13.8
07:25 1012 29.88 841 24.83 -1.6 29.1 53 -10 14.1
07:30 1012 29.88 841 24.83 -1.5 29.4 50 -10.6 13
07:35 1012 29.88 841 24.83 -1.2 29.9 50 -10.4 13.2
07:40 1012 29.88 841 24.83 -0.9 30.4 48 -10.6 12.9
07:45 1011 29.85 841 24.83 -0.8 30.6 51 -9.8 14.4
07:50 1011 29.85 841 24.83 -1.4 29.5 52 -10 14.1
07:55 1011 29.85 840 24.81 -1.4 29.4 52 -10.1 13.8
08:00 1011 29.85 840 24.81 -1.5 29.3 52 -10.1 13.8
08:05 1011 29.85 840 24.81 -1.6 29.1 54 -9.7 14.6
08:10 1011 29.85 840 24.81 -1.7 29 53 -10.1 13.8
08:15 1011 29.85 840 24.81 -1.7 29 54 -9.8 14.3
08:20 1011 29.85 840 24.81 -1.6 29.1 53 -10 14
08:25 1011 29.85 840 24.81 -1.4 29.5 54 -9.6 14.7
08:30 1011 29.85 840 24.81 -1.4 29.5 53 -9.8 14.4
08:35 1011 29.85 840 24.81 -1.3 29.6 54 -9.6 14.7
08:40 1011 29.85 840 24.81 -1.2 29.8 49 -10.6 13
08:45 1011 29.85 840 24.81 -1 30.3 50 -10.2 13.7
08:50 1011 29.85 840 24.81 -1 30.1 51 -9.9 14.2
08:55 1011 29.85 840 24.81 -0.9 30.3 48 -10.6 13
09:00 1010 29.83 840 24.81 -0.6 30.9 48 -10.3 13.5
09:05 1010 29.83 840 24.81 -0.7 30.7 49 -10.1 13.8
09:10 1010 29.83 840 24.81 -0.8 30.6 52 -9.4 15.1
09:15 1010 29.83 840 24.81 -1 30.3 53 -9.5 15
09:20 1010 29.83 839 24.78 -1 30.2 55 -8.9 15.9
09:25 1010 29.83 839 24.78 -1.1 30 59 -8.2 17.2
09:30 1010 29.83 839 24.78 -1.4 29.4 59 -8.4 16.9
09:35 1010 29.83 839 24.78 -1.5 29.3 57 -9 15.8
09:40 1010 29.83 839 24.78 -1.3 29.7 53 -9.6 14.7
09:45 1010 29.83 839 24.78 -0.9 30.4 52 -9.4 15
09:50 1010 29.83 839 24.78 -0.7 30.8 51 -9.5 14.9
09:55 1010 29.83 839 24.78 -0.6 30.9 51 -9.6 14.7
10:00 1010 29.83 839 24.78 -0.3 31.4 51 -9.4 15.1
10:05 1010 29.83 839 24.78 -0.2 31.6 50 -9.4 15
10:10 1010 29.83 839 24.78 -0.2 31.7 50 -9.3 15.3
10:15 1010 29.83 839 24.78 0 32.1 50 -9.1 15.6
10:20 1010 29.83 839 24.78 0.2 32.3 51 -8.9 16.1
10:25 1010 29.83 839 24.78 0.3 32.5 49 -9.2 15.5
10:30 1009 29.8 839 24.78 0.4 32.6 50 -8.9 15.9
10:35 1009 29.8 839 24.78 0.4 32.8 50 -8.9 15.9
10:40 1009 29.8 839 24.78 0.5 32.9 49 -9.1 15.6
10:45 1009 29.8 838 24.75 0.5 33 50 -8.7 16.3
10:50 1009 29.8 838 24.75 0.8 33.4 48 -9 15.8
10:55 1009 29.8 838 24.75 1 33.8 48 -8.8 16.1
11:00 1009 29.8 838 24.75 1.2 34.2 47 -8.9 16
11:05 1009 29.8 838 24.75 1.3 34.4 46 -9.1 15.5
11:10 1009 29.8 838 24.75 1.5 34.7 44 -9.3 15.2
11:15 1009 29.8 838 24.75 1.8 35.2 47 -8.4 16.9
11:20 1008 29.77 838 24.75 2.4 36.4 47 -7.8 17.9
11:25 1008 29.77 837 24.72 2.9 37.3 47 -7.3 18.8
11:30 1008 29.77 837 24.72 3.4 38 46 -7.1 19.2
11:35 1008 29.77 837 24.72 3.4 38.2 47 -6.7 20
11:40 1008 29.77 837 24.72 3.2 37.8 48 -6.8 19.8
11:45 1008 29.77 837 24.72 3 37.4 48 -7.1 19.3
11:50 1008 29.77 837 24.72 3.1 37.6 47 -7.1 19.2
11:55 1008 29.77 837 24.72 3.2 37.7 47 -7.2 19.1
12:00 1007 29.74 837 24.72 2.9 37.3 48 -7.1 19.3
12:05 1007 29.74 837 24.72 3.2 37.8 49 -6.6 20.2
12:10 1007 29.74 836 24.69 3.3 37.9 48 -6.7 20
12:15 1007 29.74 836 24.69 3.4 38.2 48 -6.5 20.3
12:20 1007 29.74 836 24.69 3.6 38.5 48 -6.5 20.4
12:25 1007 29.74 836 24.69 3.6 38.5 49 -6.2 20.8
12:30 1007 29.74 836 24.69 3.4 38.1 50 -6.2 20.9
12:35 1007 29.74 836 24.69 2.8 37 52 -6 21.2
12:40 1007 29.74 836 24.69 2.6 36.6 54 -5.8 21.5
12:45 1006 29.71 836 24.69 2.7 36.8 56 -5.3 22.4
12:50 1006 29.71 836 24.69 3.4 38.1 52 -5.4 22.2
12:55 1006 29.71 835 24.66 3.7 38.7 53 -5 22.9
13:00 1006 29.71 835 24.66 3.7 38.7 53 -4.9 23.2
13:05 1006 29.71 835 24.66 3.7 38.7 53 -4.9 23.3
13:10 1006 29.71 835 24.66 3.7 38.6 54 -4.8 23.4
13:15 1006 29.71 835 24.66 3.6 38.5 55 -4.5 23.9
13:20 1006 29.71 835 24.66 3.5 38.4 56 -4.4 24.1
13:25 1006 29.71 835 24.66 3.5 38.2 57 -4.3 24.3
13:30 1006 29.71 835 24.66 3.4 38.1 57 -4.4 24.1
13:35 1005 29.68 835 24.66 3.3 38 56 -4.7 23.6
13:40 1005 29.68 835 24.66 3.4 38.2 56 -4.6 23.7
13:45 1005 29.68 834 24.63 3.5 38.2 55 -4.6 23.7
13:50 1005 29.68 834 24.63 3.6 38.5 53 -5.1 22.9
13:55 1005 29.68 834 24.63 3.8 38.8 51 -5.5 22.1
14:00 1005 29.68 834 24.63 4 39.2 50 -5.6 22
14:05 1005 29.68 834 24.63 4 39.2 51 -5.3 22.4
14:10 1005 29.68 834 24.63 3.9 39.1 52 -4.9 23.1
14:15 1005 29.68 834 24.63 3.8 38.9 54 -4.7 23.5
14:20 1005 29.68 834 24.63 3.8 38.9 54 -4.7 23.6
14:25 1005 29.68 834 24.63 3.8 38.8 55 -4.5 23.8
14:30 1005 29.68 834 24.63 3.9 38.9 53 -4.9 23.3
14:35 1004 29.65 834 24.63 4 39.2 52 -5 23
14:40 1004 29.65 834 24.63 4.1 39.4 51 -5.2 22.7
14:45 1004 29.65 834 24.63 4.1 39.5 51 -5.2 22.7
14:50 1004 29.65 833 24.6 4.1 39.5 51 -5.2 22.7
14:55 1004 29.65 833 24.6 4.1 39.4 51 -5.1 22.9
15:00 1004 29.65 833 24.6 4 39.2 52 -4.9 23.2
15:05 1004 29.65 833 24.6 4.1 39.3 52 -4.9 23.1
15:10 1004 29.65 833 24.6 4.2 39.5 52 -4.7 23.5
15:15 1004 29.65 833 24.6 4.2 39.6 53 -4.4 24.1
15:20 1004 29.65 833 24.6 4.2 39.6 53 -4.4 24.1
15:25 1004 29.65 833 24.6 4.2 39.5 54 -4.3 24.3
15:30 1004 29.65 833 24.6 4.1 39.3 54 -4.4 24
15:35 1004 29.65 833 24.6 4.1 39.3 54 -4.3 24.2
15:40 1004 29.65 833 24.6 3.8 38.9 55 -4.4 24
15:45 1004 29.65 833 24.6 3.6 38.5 55 -4.5 23.9
15:50 1004 29.65 833 24.6 3.7 38.6 55 -4.6 23.6
15:55 1004 29.65 833 24.6 3.9 39 55 -4.4 24
16:00 1004 29.65 833 24.6 4 39.3 54 -4.4 24
16:05 1004 29.65 833 24.6 3.9 38.9 54 -4.6 23.7
16:10 1004 29.65 833 24.6 3.9 39 52 -5.1 22.8
16:15 1004 29.65 833 24.6 3.9 39.1 51 -5.2 22.7
16:20 1004 29.65 833 24.6 3.8 38.9 52 -5.2 22.7
16:25 1004 29.65 833 24.6 3.8 38.8 52 -5.2 22.6
16:30 1004 29.65 833 24.6 3.7 38.7 52 -5.1 22.8
16:35 1004 29.65 833 24.6 3.6 38.4 53 -5 22.9
16:40 1004 29.65 833 24.6 3.4 38.1 54 -5 23.1
16:45 1004 29.65 833 24.6 3.3 38 55 -4.9 23.2
16:50 1004 29.65 833 24.6 3.3 37.9 55 -5 23
16:55 1004 29.65 833 24.6 3.2 37.8 55 -5 23
17:00 1003 29.62 833 24.6 3.2 37.8 54 -5.1 22.8
17:05 1003 29.62 833 24.6 3.1 37.7 55 -5 22.9
17:10 1003 29.62 832 24.57 3 37.4 55 -5.1 22.8
17:15 1003 29.62 832 24.57 3.1 37.6 52 -5.7 21.7
17:20 1003 29.62 832 24.57 3.4 38.1 52 -5.6 22
17:25 1003 29.62 832 24.57 3.3 37.9 52 -5.6 21.9
17:30 1003 29.62 833 24.6 3.3 37.9 52 -5.6 21.8
17:35 1003 29.62 833 24.6 3.2 37.7 52 -5.7 21.8
17:40 1003 29.62 833 24.6 3.2 37.7 53 -5.6 21.9
17:45 1004 29.65 833 24.6 3.1 37.6 53 -5.6 22
17:50 1004 29.65 833 24.6 3 37.3 54 -5.5 22.1
17:55 1004 29.65 833 24.6 2.9 37.1 54 -5.6 21.9
18:00 1004 29.65 833 24.6 2.9 37.2 53 -5.8 21.6
18:05 1004 29.65 833 24.6 3.1 37.5 53 -5.6 21.9
18:10 1004 29.65 833 24.6 3 37.4 54 -5.4 22.2
18:15 1004 29.65 833 24.6 2.9 37.2 54 -5.5 22.1
18:20 1004 29.65 833 24.6 2.8 37.1 55 -5.3 22.4
18:25 1004 29.65 833 24.6 2.7 36.9 56 -5.1 22.8
18:30 1004 29.65 833 24.6 2.5 36.6 58 -5 23
18:35 1004 29.65 833 24.6 2.5 36.5 59 -4.8 23.3
18:40 1004 29.65 833 24.6 2.5 36.5 58 -4.9 23.2
18:45 1004 29.65 833 24.6 2.5 36.5 59 -4.6 23.7
18:50 1004 29.65 833 24.6 2.3 36.2 66 -3.4 25.9
18:55 1004 29.65 833 24.6 1.8 35.3 72 -2.7 27.2
19:00 1004 29.65 833 24.6 1.4 34.5 77 -2.3 27.8
19:05 1004 29.65 833 24.6 1 33.8 80 -2.1 28.3
19:10 1004 29.65 834 24.63 0.8 33.4 81 -2.2 28.1
19:15 1004 29.65 834 24.63 0.8 33.4 80 -2.2 28
19:20 1004 29.65 834 24.63 0.7 33.3 82 -2 28.3
19:25 1004 29.65 834 24.63 0.5 33 82 -2.2 28
19:30 1004 29.65 834 24.63 0.2 32.4 82 -2.4 27.6
19:35 1004 29.65 834 24.63 0 32 83 -2.6 27.4
19:40 1004 29.65 834 24.63 -0.3 31.5 86 -2.3 27.8
19:45 1005 29.68 834 24.63 -0.5 31 89 -2.2 28.1
19:50 1005 29.68 834 24.63 -1.1 29.9 89 -2.8 27
19:55 1005 29.68 834 24.63 -1.8 28.7 89 -3.4 25.8
20:00 1005 29.68 834 24.63 -2.1 28.2 90 -3.5 25.6
20:05 1005 29.68 834 24.63 -2.1 28.2 90 -3.5 25.7
20:10 1005 29.68 834 24.63 -2.1 28.2 90 -3.6 25.5
20:15 1005 29.68 834 24.63 -2 28.4 89 -3.6 25.5
20:20 1005 29.68 834 24.63 -2 28.5 88 -3.7 25.3
20:25 1005 29.68 834 24.63 -1.9 28.7 87 -3.8 25.1
20:30 1005 29.68 834 24.63 -1.7 28.9 87 -3.7 25.4
20:35 1005 29.68 834 24.63 -1.7 28.9 87 -3.7 25.4
20:40 1005 29.68 834 24.63 -1.7 28.9 86 -3.8 25.2
20:45 1005 29.68 835 24.66 -1.7 29 84 -4 24.7
20:50 1005 29.68 835 24.66 -1.9 28.6 86 -3.9 24.9
20:55 1005 29.68 835 24.66 -2.2 28.1 88 -3.9 24.9
21:00 1005 29.68 835 24.66 -2.2 28 87 -4 24.8
21:05 1005 29.68 835 24.66 -2.2 28.1 86 -4.1 24.6
21:10 1006 29.71 835 24.66 -2.1 28.1 85 -4.3 24.3
21:15 1006 29.71 835 24.66 -2.1 28.2 87 -4 24.8
21:20 1006 29.71 835 24.66 -2.1 28.2 86 -4.1 24.6
21:25 1006 29.71 835 24.66 -2.1 28.2 86 -4.1 24.5
21:30 1006 29.71 835 24.66 -2.1 28.2 86 -4.2 24.5
21:35 1006 29.71 835 24.66 -2.1 28.3 85 -4.2 24.4
21:40 1006 29.71 835 24.66 -2.1 28.2 85 -4.3 24.3
21:45 1006 29.71 835 24.66 -2.1 28.3 85 -4.2 24.4
21:50 1006 29.71 835 24.66 -2 28.5 86 -4.1 24.7
21:55 1006 29.71 835 24.66 -1.9 28.6 85 -4 24.8
22:00 1006 29.71 835 24.66 -1.8 28.8 85 -4 24.8
22:05 1006 29.71 835 24.66 -1.7 28.9 84 -4 24.8
22:10 1006 29.71 835 24.66 -1.7 29 84 -4.1 24.6
22:15 1006 29.71 835 24.66 -1.7 28.9 82 -4.4 24.2
22:20 1006 29.71 835 24.66 -1.8 28.8 77 -5.3 22.5
22:25 1006 29.71 835 24.66 -1.7 28.9 65 -7.4 18.7
22:30 1006 29.71 835 24.66 -1.6 29.1 68 -6.7 19.9
22:35 1006 29.71 835 24.66 -1.7 28.9 68 -6.9 19.5
22:40 1006 29.71 835 24.66 -1.8 28.8 66 -7.4 18.7
22:45 1006 29.71 835 24.66 -1.8 28.7 66 -7.3 18.8
22:50 1006 29.71 835 24.66 -1.9 28.6 66 -7.4 18.8
22:55 1006 29.71 836 24.69 -1.9 28.6 63 -8 17.5
23:00 1006 29.71 836 24.69 -1.9 28.7 63 -7.9 17.8
23:05 1006 29.71 836 24.69 -1.9 28.6 63 -8.1 17.4
23:10 1006 29.71 835 24.66 -1.9 28.5 63 -8 17.7
23:15 1006 29.71 835 24.66 -1.9 28.5 62 -8.2 17.2
23:20 1006 29.71 836 24.69 -1.9 28.5 61 -8.4 16.8
23:25 1006 29.71 836 24.69 -1.9 28.6 62 -8.3 17.1
23:30 1007 29.74 836 24.69 -2 28.5 61 -8.5 16.7
23:35 1007 29.74 836 24.69 -2 28.4 60 -8.7 16.3
23:40 1007 29.74 836 24.69 -2 28.3 59 -8.9 15.9
23:45 1007 29.74 836 24.69 -2 28.4 59 -9 15.9
23:50 1007 29.74 836 24.69 -2 28.4 54 -10.1 13.9
23:55 1007 29.74 836 24.69 -2.1 28.1 59 -9.1 15.6
24:00 1007 29.74 836 24.69 -2.5 27.5 57 -9.9 14.2